createdAt,value
2022-12-22T00:01:34.438Z,10.87
2022-12-22T00:04:20.134Z,9.83
2022-12-22T00:07:05.691Z,10.30
2022-12-22T00:09:51.166Z,11.33
2022-12-22T00:12:38.324Z,10.60
2022-12-22T00:15:24.530Z,10.33
2022-12-22T00:18:10.482Z,10.60
2022-12-22T00:20:56.428Z,10.20
2022-12-22T00:23:41.870Z,10.40
2022-12-22T00:26:27.597Z,9.97
2022-12-22T00:29:13.452Z,10.27
2022-12-22T00:31:59.771Z,10.23
2022-12-22T00:34:46.816Z,10.43
2022-12-22T00:37:32.902Z,9.67
2022-12-22T00:40:19.393Z,9.60
2022-12-22T00:43:05.251Z,8.93
2022-12-22T00:45:51.227Z,9.53
2022-12-22T00:48:40.397Z,9.33
2022-12-22T00:51:27.864Z,9.30
2022-12-22T00:54:15.829Z,10.00
2022-12-22T00:57:01.867Z,9.33
2022-12-22T00:59:48.379Z,9.80
2022-12-22T01:02:34.397Z,10.30
2022-12-22T01:05:20.342Z,9.10
2022-12-22T01:08:06.411Z,9.37
2022-12-22T01:10:52.333Z,10.27
2022-12-22T01:13:38.457Z,9.80
2022-12-22T01:16:26.440Z,9.20
2022-12-22T01:19:12.165Z,9.13
2022-12-22T01:21:57.904Z,9.80
2022-12-22T01:24:45.977Z,8.80
2022-12-22T01:27:31.949Z,8.53
2022-12-22T01:30:17.887Z,8.83
2022-12-22T01:33:03.804Z,8.67
2022-12-22T01:35:52.225Z,10.33
2022-12-22T01:38:38.326Z,9.57
2022-12-22T01:41:25.100Z,10.93
2022-12-22T01:44:11.219Z,10.70
2022-12-22T01:47:01.170Z,10.97
2022-12-22T01:49:55.390Z,10.63
2022-12-22T01:52:44.522Z,12.73
2022-12-22T01:55:32.542Z,11.40
2022-12-22T01:58:18.595Z,11.23
2022-12-22T02:01:05.697Z,11.33
2022-12-22T02:03:51.662Z,11.20
2022-12-22T02:06:43.523Z,10.47
2022-12-22T02:09:48.281Z,11.37
2022-12-22T02:12:44.855Z,10.77
2022-12-22T02:15:38.525Z,11.30
2022-12-22T02:18:28.409Z,10.90
2022-12-22T02:21:22.343Z,11.60
2022-12-22T02:24:17.020Z,11.73
2022-12-22T02:27:08.215Z,11.80
2022-12-22T02:29:59.659Z,12.03
2022-12-22T02:32:45.486Z,11.27
2022-12-22T02:35:43.321Z,12.17
2022-12-22T02:38:48.086Z,11.63
2022-12-22T02:41:42.652Z,11.23
2022-12-22T02:44:40.710Z,12.43
2022-12-22T02:47:30.348Z,11.50
2022-12-22T02:50:18.280Z,11.60
2022-12-22T02:53:05.124Z,12.10
2022-12-22T02:55:50.842Z,11.17
2022-12-22T02:58:37.735Z,12.27
2022-12-22T03:01:24.195Z,10.67
2022-12-22T03:04:09.869Z,11.10
2022-12-22T03:06:56.038Z,12.60
2022-12-22T03:09:42.200Z,13.13
2022-12-22T03:12:28.037Z,13.00
2022-12-22T03:15:13.760Z,13.20
2022-12-22T03:17:59.438Z,14.20
2022-12-22T03:20:45.147Z,13.93
2022-12-22T03:23:31.196Z,13.73
2022-12-22T03:25:58.331Z,13.17
2022-12-22T03:28:26.961Z,13.67
2022-12-22T03:31:05.091Z,12.60
2022-12-22T03:33:32.653Z,13.63
2022-12-22T03:36:00.309Z,12.93
2022-12-22T03:38:27.683Z,11.90
2022-12-22T03:40:55.150Z,12.67
2022-12-22T03:43:41.184Z,12.77
2022-12-22T03:46:32.274Z,11.60
2022-12-22T03:49:10.363Z,12.10
2022-12-22T03:51:47.755Z,12.23
2022-12-22T03:54:15.847Z,12.13
2022-12-22T03:56:43.704Z,12.53
2022-12-22T03:59:10.842Z,12.00
2022-12-22T04:01:39.877Z,12.33
2022-12-22T04:04:07.512Z,11.80
2022-12-22T04:06:34.722Z,11.97
2022-12-22T04:09:02.893Z,12.03
2022-12-22T04:11:48.743Z,12.80
2022-12-22T04:14:15.823Z,12.67
2022-12-22T04:16:43.146Z,13.27
2022-12-22T04:19:10.327Z,12.60
2022-12-22T04:21:37.472Z,12.13
2022-12-22T04:24:06.384Z,12.10
2022-12-22T04:26:33.486Z,11.93
2022-12-22T04:29:00.718Z,12.17
2022-12-22T04:31:27.919Z,11.87
2022-12-22T04:33:55.401Z,11.80
2022-12-22T04:36:22.894Z,12.13
2022-12-22T04:38:50.336Z,11.23
2022-12-22T04:41:17.626Z,11.70
2022-12-22T04:43:44.898Z,10.87
2022-12-22T04:46:12.091Z,12.90
2022-12-22T04:48:39.249Z,10.90
2022-12-22T04:51:06.740Z,10.80
2022-12-22T04:53:34.376Z,10.67
2022-12-22T04:56:06.512Z,11.13
2022-12-22T04:58:33.848Z,11.47
2022-12-22T05:01:10.962Z,12.13
2022-12-22T05:03:38.477Z,11.57
2022-12-22T05:06:05.820Z,11.60
2022-12-22T05:08:32.877Z,11.40
2022-12-22T05:10:59.919Z,10.50
2022-12-22T05:13:27.223Z,10.77
2022-12-22T05:15:54.837Z,11.60
2022-12-22T05:18:21.889Z,11.70
2022-12-22T05:20:48.951Z,10.57
2022-12-22T05:23:16.029Z,9.77
2022-12-22T05:25:43.431Z,9.73
2022-12-22T05:28:10.535Z,9.63
2022-12-22T05:30:38.006Z,10.03
2022-12-22T05:33:05.164Z,10.07
2022-12-22T05:35:32.381Z,9.73
2022-12-22T05:37:59.522Z,10.00
2022-12-22T05:40:26.789Z,9.37
2022-12-22T05:42:54.003Z,9.60
2022-12-22T05:45:21.682Z,10.33
2022-12-22T05:47:50.812Z,10.73
2022-12-22T05:50:20.001Z,9.27
2022-12-22T05:52:47.150Z,9.73
2022-12-22T05:55:15.008Z,8.80
2022-12-22T05:57:42.499Z,8.37
2022-12-22T06:00:15.381Z,10.03
2022-12-22T06:02:43.176Z,11.10
2022-12-22T06:05:11.492Z,12.53
2022-12-22T06:07:39.839Z,12.17
2022-12-22T06:10:12.004Z,11.20
2022-12-22T06:12:40.087Z,11.17
2022-12-22T06:15:07.771Z,10.63
2022-12-22T06:17:39.243Z,11.67
2022-12-22T06:20:11.400Z,12.27
2022-12-22T06:22:38.455Z,11.97
2022-12-22T06:25:05.702Z,12.67
2022-12-22T06:27:36.269Z,12.87
2022-12-22T06:30:04.717Z,12.73
2022-12-22T06:32:31.767Z,11.27
2022-12-22T06:34:58.896Z,11.80
2022-12-22T06:37:37.572Z,11.20
2022-12-22T06:40:07.467Z,11.63
2022-12-22T06:42:53.205Z,12.07
2022-12-22T06:45:20.396Z,11.93
2022-12-22T06:47:47.681Z,11.87
2022-12-22T06:50:14.847Z,12.50
2022-12-22T06:52:42.014Z,12.00
2022-12-22T06:55:09.261Z,11.67
2022-12-22T06:57:36.448Z,13.17
2022-12-22T07:00:04.856Z,11.50
2022-12-22T07:02:32.320Z,11.47
2022-12-22T07:04:59.613Z,11.97
2022-12-22T07:07:26.784Z,12.77
2022-12-22T07:09:55.665Z,14.03
2022-12-22T07:12:23.234Z,13.03
2022-12-22T07:14:50.674Z,14.37
2022-12-22T07:17:17.717Z,14.33
2022-12-22T07:19:45.014Z,14.97
2022-12-22T07:22:12.096Z,15.37
2022-12-22T07:24:39.188Z,15.43
2022-12-22T07:27:06.222Z,21.27
2022-12-22T07:29:33.346Z,15.47
2022-12-22T07:32:00.537Z,16.97
2022-12-22T07:34:30.928Z,17.07
2022-12-22T07:36:58.029Z,17.23
2022-12-22T07:39:25.267Z,15.97
2022-12-22T07:42:11.135Z,19.17
2022-12-22T07:44:38.320Z,16.57
2022-12-22T07:47:05.552Z,16.00
2022-12-22T07:49:51.185Z,13.80
2022-12-22T07:52:18.272Z,16.93
2022-12-22T07:54:45.442Z,15.33
2022-12-22T07:57:12.650Z,13.53
2022-12-22T07:59:39.764Z,16.43
2022-12-22T08:02:07.305Z,15.73
2022-12-22T08:04:34.622Z,16.50
2022-12-22T08:07:01.759Z,15.90
2022-12-22T08:09:28.927Z,17.00
2022-12-22T08:11:55.873Z,15.90
2022-12-22T08:14:22.964Z,15.87
2022-12-22T08:16:50.210Z,15.10
2022-12-22T08:19:17.437Z,13.37
2022-12-22T08:21:52.179Z,15.90
2022-12-22T08:24:20.342Z,16.00
2022-12-22T08:26:50.336Z,15.13
2022-12-22T08:29:20.588Z,15.33
2022-12-22T08:31:47.852Z,14.47
2022-12-22T08:34:15.862Z,15.80
2022-12-22T08:36:45.149Z,15.17
2022-12-22T08:39:12.782Z,18.00
2022-12-22T08:41:52.447Z,14.73
2022-12-22T08:44:25.857Z,13.47
2022-12-22T08:46:55.114Z,19.70
2022-12-22T08:49:22.411Z,14.77
2022-12-22T08:51:49.896Z,13.93
2022-12-22T08:56:53.212Z,13.67
2022-12-22T08:59:20.274Z,13.03
2022-12-22T09:01:50.686Z,14.43
2022-12-22T09:04:19.401Z,12.87
2022-12-22T09:06:46.470Z,14.00
2022-12-22T09:09:14.685Z,13.77
2022-12-22T09:11:42.158Z,13.77
2022-12-22T09:14:09.650Z,16.30
2022-12-22T09:16:37.131Z,15.63
2022-12-22T09:19:04.804Z,14.97
2022-12-22T09:21:31.904Z,16.97
2022-12-22T09:23:59.284Z,16.13
2022-12-22T09:26:27.505Z,15.77
2022-12-22T09:28:55.432Z,15.43
2022-12-22T09:31:24.370Z,17.17
2022-12-22T09:33:51.745Z,14.37
2022-12-22T09:36:20.419Z,16.57
2022-12-22T09:38:47.591Z,15.73
2022-12-22T09:41:17.388Z,17.57
2022-12-22T09:43:44.549Z,15.33
2022-12-22T09:46:26.114Z,16.43
2022-12-22T09:48:54.716Z,15.70
2022-12-22T09:51:26.666Z,16.63
2022-12-22T09:53:59.087Z,16.57
2022-12-22T09:56:26.956Z,17.47
2022-12-22T09:58:54.077Z,13.97
2022-12-22T10:01:38.577Z,16.17
2022-12-22T10:04:05.754Z,14.03
2022-12-22T10:06:51.778Z,13.70
2022-12-22T10:09:48.046Z,14.57
2022-12-22T10:12:15.382Z,14.07
2022-12-22T10:14:44.339Z,15.13
2022-12-22T10:17:32.314Z,15.80
2022-12-22T10:20:21.035Z,14.07
2022-12-22T10:22:54.983Z,15.60
2022-12-22T10:25:52.230Z,13.90
2022-12-22T10:28:20.287Z,14.70
2022-12-22T10:30:47.364Z,13.17
2022-12-22T10:33:15.575Z,13.80
2022-12-22T10:35:52.980Z,13.60
2022-12-22T10:38:21.486Z,13.17
2022-12-22T10:40:52.247Z,13.67
2022-12-22T10:43:32.443Z,13.77
2022-12-22T10:46:00.109Z,14.07
2022-12-22T10:48:32.107Z,14.47
2022-12-22T10:51:00.094Z,13.40
2022-12-22T10:53:44.382Z,15.47
2022-12-22T10:56:20.353Z,13.03
2022-12-22T10:59:07.670Z,14.30
2022-12-22T11:01:35.986Z,13.53
2022-12-22T11:04:18.200Z,14.47
2022-12-22T11:06:45.329Z,14.03
2022-12-22T11:09:32.424Z,14.20
2022-12-22T11:12:20.432Z,14.40
2022-12-22T11:14:53.811Z,15.00
2022-12-22T11:17:29.172Z,13.57
2022-12-22T11:20:03.719Z,14.53
2022-12-22T11:23:03.378Z,14.80
2022-12-22T11:25:46.067Z,17.43
2022-12-22T11:28:26.191Z,14.77
2022-12-22T11:30:53.557Z,13.40
2022-12-22T11:33:21.172Z,13.83
2022-12-22T11:35:51.532Z,14.37
2022-12-22T11:38:38.446Z,14.50
2022-12-22T11:41:05.509Z,14.00
2022-12-22T11:43:47.954Z,13.60
2022-12-22T11:46:35.561Z,14.20
2022-12-22T11:49:03.469Z,13.17
2022-12-22T11:51:30.579Z,11.67
2022-12-22T11:53:57.929Z,12.33
2022-12-22T11:56:27.394Z,12.23
2022-12-22T11:59:14.216Z,11.27
2022-12-22T12:01:50.754Z,10.27
2022-12-22T12:04:41.030Z,12.03
2022-12-22T12:07:26.627Z,12.00
2022-12-22T12:10:32.340Z,11.87
2022-12-22T12:13:18.062Z,12.37
2022-12-22T12:15:54.653Z,13.60
2022-12-22T12:18:34.444Z,14.00
2022-12-22T12:21:03.143Z,14.63
2022-12-22T12:23:42.481Z,14.83
2022-12-22T12:26:22.880Z,14.20
2022-12-22T12:29:10.648Z,14.23
2022-12-22T12:31:42.261Z,13.43
2022-12-22T12:34:13.349Z,14.13
2022-12-22T12:36:43.531Z,13.03
2022-12-22T12:39:10.681Z,12.73
2022-12-22T12:41:42.724Z,11.53
2022-12-22T12:44:13.038Z,11.83
2022-12-22T12:46:43.156Z,11.70
2022-12-22T12:49:29.120Z,10.57
2022-12-22T12:51:56.224Z,11.10
2022-12-22T12:54:34.480Z,11.20
2022-12-22T12:57:02.865Z,10.77
2022-12-22T12:59:42.010Z,11.07
2022-12-22T13:02:27.753Z,11.37
2022-12-22T13:05:13.261Z,11.13
2022-12-22T13:07:59.242Z,11.10
2022-12-22T13:10:30.809Z,10.43
2022-12-22T13:12:58.402Z,10.13
2022-12-22T13:15:35.798Z,10.60
2022-12-22T13:18:29.159Z,9.87
2022-12-22T13:21:50.941Z,11.10
2022-12-22T13:24:24.848Z,10.23
2022-12-22T13:26:48.339Z,9.87
2022-12-22T13:29:21.279Z,10.83
2022-12-22T13:31:50.029Z,11.00
2022-12-22T13:34:19.871Z,10.83
2022-12-22T13:36:47.953Z,10.57
2022-12-22T13:39:15.604Z,9.17
2022-12-22T13:41:44.027Z,10.60
2022-12-22T13:44:14.975Z,8.63
2022-12-22T13:46:42.928Z,8.90
2022-12-22T13:49:24.703Z,8.33
2022-12-22T13:52:05.156Z,8.80
2022-12-22T13:54:36.131Z,8.30
2022-12-22T13:57:04.461Z,9.33
2022-12-22T13:59:33.594Z,8.83
2022-12-22T14:02:05.361Z,8.30
2022-12-22T14:04:32.555Z,8.07
2022-12-22T14:07:10.417Z,8.57
2022-12-22T14:09:37.505Z,8.77
2022-12-22T14:12:08.403Z,9.73
2022-12-22T14:14:42.154Z,9.37
2022-12-22T14:17:28.075Z,10.93
2022-12-22T14:19:56.382Z,8.77
2022-12-22T14:22:37.624Z,10.30
2022-12-22T14:25:09.953Z,10.23
2022-12-22T14:27:39.133Z,10.90
2022-12-22T14:30:08.105Z,10.13
2022-12-22T14:32:35.213Z,9.50
2022-12-22T14:35:02.574Z,9.07
2022-12-22T14:37:32.829Z,10.00
2022-12-22T14:40:00.445Z,9.13
2022-12-22T14:42:27.482Z,9.97
2022-12-22T14:44:54.591Z,9.13
2022-12-22T14:47:24.715Z,9.57
2022-12-22T14:49:51.796Z,9.63
2022-12-22T14:52:18.948Z,9.83
2022-12-22T14:54:50.410Z,9.63
2022-12-22T14:57:21.506Z,10.57
2022-12-22T15:00:02.444Z,9.70
2022-12-22T15:02:38.342Z,9.80
2022-12-22T15:05:07.465Z,9.57
2022-12-22T15:10:36.159Z,10.63
2022-12-22T15:13:04.759Z,10.27
2022-12-22T15:15:33.758Z,10.43
2022-12-22T15:18:00.799Z,10.53
2022-12-22T15:20:33.662Z,11.27
2022-12-22T15:23:08.843Z,12.80
2022-12-22T15:25:35.940Z,11.77
2022-12-22T15:28:02.982Z,11.53
2022-12-22T15:30:30.160Z,12.37
2022-12-22T15:32:57.320Z,12.57
2022-12-22T15:35:35.240Z,10.80
2022-12-22T15:38:02.410Z,12.73
2022-12-22T15:40:29.820Z,12.37
2022-12-22T15:42:56.853Z,12.60
2022-12-22T15:45:23.944Z,11.47
2022-12-22T15:47:55.293Z,14.70
2022-12-22T15:50:25.436Z,12.77
2022-12-22T15:52:54.255Z,13.20
2022-12-22T15:55:21.827Z,14.00
2022-12-22T15:57:53.198Z,13.07
2022-12-22T16:00:21.616Z,14.17
2022-12-22T16:02:49.078Z,14.03
2022-12-22T16:05:16.385Z,13.60
2022-12-22T16:07:44.475Z,13.93
2022-12-22T16:10:31.289Z,14.13
2022-12-22T16:13:01.029Z,14.07
2022-12-22T16:15:29.111Z,12.43
2022-12-22T16:17:56.221Z,14.53
2022-12-22T16:20:23.835Z,14.67
2022-12-22T16:22:52.076Z,14.20
2022-12-22T16:25:20.740Z,14.80
2022-12-22T16:27:49.436Z,14.67
2022-12-22T16:30:21.048Z,14.90
2022-12-22T16:32:48.172Z,13.57
2022-12-22T16:35:22.810Z,15.50
2022-12-22T16:37:50.198Z,14.27
2022-12-22T16:40:20.440Z,15.43
2022-12-22T16:45:37.812Z,15.37
2022-12-22T16:48:12.335Z,16.10
2022-12-22T16:50:39.537Z,16.17
2022-12-22T16:53:06.627Z,14.83
2022-12-22T16:55:35.759Z,17.23
2022-12-22T16:58:12.756Z,15.93
2022-12-22T17:00:41.313Z,16.50
2022-12-22T17:03:16.444Z,17.60
2022-12-22T17:05:45.867Z,18.63
2022-12-22T17:08:23.144Z,17.90
2022-12-22T17:10:50.831Z,20.40
2022-12-22T17:13:18.410Z,19.13
2022-12-22T17:15:45.575Z,19.73
2022-12-22T17:18:16.695Z,19.17
2022-12-22T17:20:44.370Z,20.60
2022-12-22T17:23:23.854Z,20.70
2022-12-22T17:25:50.904Z,21.57
2022-12-22T17:28:18.443Z,20.67
2022-12-22T17:30:45.478Z,21.27
2022-12-22T17:33:16.321Z,21.57
2022-12-22T17:35:44.327Z,19.97
2022-12-22T17:38:15.136Z,20.17
2022-12-22T17:40:43.144Z,22.13
2022-12-22T17:43:20.859Z,20.57
2022-12-22T17:45:48.422Z,21.67
2022-12-22T17:48:16.136Z,21.70
2022-12-22T17:50:46.067Z,22.80
2022-12-22T17:53:15.411Z,20.43
2022-12-22T17:58:29.561Z,22.77
2022-12-22T18:00:56.616Z,22.33
2022-12-22T18:03:23.804Z,22.63
2022-12-22T18:05:51.277Z,21.93
2022-12-22T18:08:20.493Z,21.23
2022-12-22T18:10:48.272Z,21.63
2022-12-22T18:13:24.227Z,21.43
2022-12-22T18:15:51.353Z,21.00
2022-12-22T18:18:18.638Z,22.03
2022-12-22T18:20:47.023Z,20.90
2022-12-22T18:23:34.307Z,20.70
2022-12-22T18:26:01.828Z,21.30
2022-12-22T18:28:28.889Z,21.17
2022-12-22T18:30:55.931Z,23.07
2022-12-22T18:33:23.056Z,21.50
2022-12-22T18:35:50.211Z,22.23
2022-12-22T18:38:30.561Z,21.60
2022-12-22T18:40:57.946Z,21.23
2022-12-22T18:43:25.117Z,22.60
2022-12-22T18:45:52.448Z,21.50
2022-12-22T18:48:19.511Z,21.23
2022-12-22T18:50:46.620Z,22.40
2022-12-22T18:53:34.473Z,21.57
2022-12-22T18:56:01.551Z,22.03
2022-12-22T18:58:28.766Z,22.27
2022-12-22T19:00:56.550Z,21.67
2022-12-22T19:03:25.136Z,22.37
2022-12-22T19:05:52.273Z,22.57
2022-12-22T19:08:20.204Z,21.90
2022-12-22T19:10:48.676Z,20.93
2022-12-22T19:13:19.887Z,22.13
2022-12-22T19:15:47.114Z,22.20
2022-12-22T19:18:21.128Z,22.67
2022-12-22T19:20:51.671Z,22.60
2022-12-22T19:23:21.616Z,22.17
2022-12-22T19:25:49.821Z,21.87
2022-12-22T19:28:16.848Z,21.47
2022-12-22T19:30:43.917Z,22.20
2022-12-22T19:33:16.819Z,22.43
2022-12-22T19:35:43.944Z,22.60
2022-12-22T19:38:21.567Z,22.50
2022-12-22T19:40:50.744Z,21.60
2022-12-22T19:43:18.731Z,22.40
2022-12-22T19:45:47.324Z,21.73
2022-12-22T19:48:17.424Z,20.87
2022-12-22T19:50:44.514Z,20.80
2022-12-22T19:53:12.221Z,20.17
2022-12-22T19:55:42.212Z,21.77
2022-12-22T19:58:29.497Z,22.43
2022-12-22T20:00:56.718Z,20.87
2022-12-22T20:03:24.653Z,21.37
2022-12-22T20:05:52.414Z,20.70
2022-12-22T20:08:19.575Z,20.03
2022-12-22T20:10:47.057Z,21.03
2022-12-22T20:13:19.214Z,20.53
2022-12-22T20:15:46.789Z,19.63
2022-12-22T20:18:18.929Z,20.17
2022-12-22T20:20:48.023Z,20.17
2022-12-22T20:23:19.752Z,19.83
2022-12-22T20:25:58.517Z,21.27
2022-12-22T20:28:27.390Z,21.93
2022-12-22T20:30:55.186Z,19.57
2022-12-22T20:33:22.794Z,19.73
2022-12-22T20:35:50.998Z,20.00
2022-12-22T20:38:22.280Z,19.97
2022-12-22T20:40:50.329Z,19.87
2022-12-22T20:43:19.430Z,20.00
2022-12-22T20:45:48.031Z,20.47
2022-12-22T20:48:34.870Z,20.00
2022-12-22T20:51:03.108Z,18.67
2022-12-22T20:53:30.271Z,19.60
2022-12-22T20:55:57.762Z,19.67
2022-12-22T20:58:25.985Z,17.10
2022-12-22T21:00:54.758Z,17.83
2022-12-22T21:03:22.062Z,16.33
2022-12-22T21:05:49.679Z,16.30
2022-12-22T21:08:27.149Z,17.57
2022-12-22T21:10:55.159Z,16.43
2022-12-22T21:13:22.518Z,16.17
2022-12-22T21:15:50.603Z,15.13
2022-12-22T21:18:19.283Z,15.40
2022-12-22T21:20:46.663Z,15.00
2022-12-22T21:23:16.416Z,15.80
2022-12-22T21:25:46.643Z,15.80
2022-12-22T21:28:34.300Z,14.40
2022-12-22T21:31:01.752Z,14.10
2022-12-22T21:33:29.208Z,14.50
2022-12-22T21:35:57.197Z,14.57
2022-12-22T21:38:26.028Z,14.60
2022-12-22T21:40:53.206Z,13.50
2022-12-22T21:43:20.266Z,13.60
2022-12-22T21:45:49.762Z,13.40
2022-12-22T21:48:21.186Z,13.90
2022-12-22T21:50:50.276Z,13.97
2022-12-22T21:53:22.473Z,14.63
2022-12-22T21:55:50.253Z,14.43
2022-12-22T21:58:17.749Z,14.13
2022-12-22T22:00:47.179Z,15.17
2022-12-22T22:03:14.979Z,15.40
2022-12-22T22:05:42.483Z,14.83
2022-12-22T22:08:10.542Z,14.50
2022-12-22T22:10:39.007Z,14.60
2022-12-22T22:13:06.531Z,13.50
2022-12-22T22:15:33.916Z,14.57
2022-12-22T22:18:06.868Z,20.60
2022-12-22T22:20:34.844Z,24.33
2022-12-22T22:23:01.936Z,16.10
2022-12-22T22:25:29.068Z,14.73
2022-12-22T22:27:59.915Z,14.53
2022-12-22T22:30:27.446Z,14.90
2022-12-22T22:32:55.493Z,14.40
2022-12-22T22:35:26.384Z,14.17
2022-12-22T22:37:53.661Z,13.50
2022-12-22T22:40:22.200Z,12.23
2022-12-22T22:42:49.501Z,14.20
2022-12-22T22:45:22.921Z,13.37
2022-12-22T22:47:51.187Z,11.73
2022-12-22T22:50:19.057Z,11.63
2022-12-22T22:52:46.472Z,12.77
2022-12-22T22:55:14.308Z,14.70
2022-12-22T22:57:42.104Z,11.00
2022-12-22T23:00:11.601Z,12.33
2022-12-22T23:02:38.865Z,11.73
2022-12-22T23:05:06.448Z,10.80
2022-12-22T23:07:33.642Z,9.97
2022-12-22T23:10:00.788Z,11.80
2022-12-22T23:12:28.135Z,10.57
2022-12-22T23:14:55.256Z,11.40
2022-12-22T23:17:22.509Z,10.60
2022-12-22T23:19:49.591Z,10.17
2022-12-22T23:22:17.166Z,10.43
2022-12-22T23:24:44.427Z,9.23
2022-12-22T23:27:11.548Z,10.20
2022-12-22T23:29:39.122Z,9.87
2022-12-22T23:32:06.505Z,10.67
2022-12-22T23:34:34.452Z,11.17
2022-12-22T23:37:01.567Z,9.87
2022-12-22T23:39:28.669Z,9.80
2022-12-22T23:41:56.185Z,10.30
2022-12-22T23:44:23.292Z,9.93
2022-12-22T23:46:50.462Z,10.07
2022-12-22T23:49:17.610Z,11.00
2022-12-22T23:51:44.702Z,10.00
2022-12-22T23:54:11.903Z,9.77
2022-12-22T23:56:38.984Z,10.43
2022-12-22T23:59:06.502Z,9.93
